Hinckley, OH

4:58 PM EDT on March 27, 2015 (GMT -0400)
Burke Lakefront | | Change Station
CLOSE
Current Station
Airport
Location: Cleveland Burke,
Elevation: 584 ft
Nearby Weather Stations

Elev 584 ft 41.52 °N, 81.68 °W | Updated 5 minutes ago

Snow
Snow
26 °F
Feels Like 14 °F
N
15
Wind Variable Wind from North
Gusts 22 mph

Today
High -- | Low -- °F
--% Chance of Precip.
Yesterday
High -- | Low -- °F
Precip. -- in
7:18 AM 7:46 PM
First Quarter, 55% visible
Pressure 30.01 in
Visibility 10.0 miles
Clouds Few 1200 ft
Scattered Clouds 2400 ft
Overcast 3800 ft
Windchill 14 °F
Dew Point 19 °F
Humidity 75%
Rainfall 0.00 in
Snow Depth Not available.
UV 1 out of 12
Pollen 1.40 out of 12
Air Quality Not available.
Flu Activity Not available.
METAR KBKL 272053Z 35013G19KT 10SM FEW012 SCT024 OVC038 M03/M07 A2999 RMK AO2 SNE42 SLP163 P0000 60000 T10331072 53002

More Conditions Fewer Conditions

Pressure 30.01 in
Visibility 10.0 miles
Clouds Few 1200 ft
Scattered Clouds 2400 ft
Overcast 3800 ft
Windchill 14 °F
Dew Point 19 °F
Humidity 75%
Rainfall 0.00 in
Snow Depth Not available.
UV 1 out of 12
Pollen 1.40 out of 12
Air Quality Not available.
Flu Activity Not available.
METAR KBKL 272053Z 35013G19KT 10SM FEW012 SCT024 OVC038 M03/M07 A2999 RMK AO2 SNE42 SLP163 P0000 60000 T10331072 53002

More Conditions Fewer Conditions

10-Day Weather Forecast

Almanac

Astronomy

Mar. 27, 2015 Rise Set
Actual Time
Civil Twilight
Nautical Twilight
Astronomical Twilight
Moon
Length of Visible Light
Length of Day
Tomorrow will be .
, % of the Moon is Illuminated

Today's Extremes

State Highs State Lows

Community

WunderPhotos

Upload Photos

1,808,822 photos uploaded!

WunderBlogs® & News

Nearby

Air Quality

  Air Quality AQ Index Pollutant
Not available.

Snow Depth

Station Depth Elevation

Earthquake Activity

City Distance Mag. Time & Date
Minimum magnitude displayed is 2.5.

Coastal Water Temperatures

Place Temperature

Stations

Nearby Weather Stations

Station Location Temp. Windchill Dew Point Humidity Wind Precip. Elev Updated Type